Long Prairie, MN (56347)

16:33 CDT le 17 septembre 2014 (GMT -0500)
Long Prairie | Change Station
CLOSE
Current Station
Aéroport
Location: Long Prairie,
Altitude: 1332 ft
Stations météo à proximité

Alt. 1332 ft 45.90 °N, 94.87 °W | Updated 13 minutes ago

Ciel dégagé
Ciel dégagé
70 ° F
Paraît 70 ° F
N
7
Vent Variable Vent de NNE

Aujourd'hui
Haut(e) -- | Bas -- ° F
--% Risque de précip.
Hier
Haut(e) -- | Bas -- ° F
Precip. -- pouce
7:00 AM 7:26 PM
Lune descendante, 33% visible
Pression 29.96 pouce
Visibilité 10.0 Miles terrestres
Nuages Ciel dégagé
Point de rosée 54 ° F
Humidité 56%
Précipitations 0.00 pouce
Profondeur de la couche neigeuse Non disponible.
UV 3 sur 12
Pollen 3.30 sur 12
Qualité de l'air Non disponible.
Flu Activity Non disponible.
METAR K14Y 172120Z AUTO 02006KT 10SM CLR 21/12 A2996 RMK AO2

More Conditions Fewer Conditions

Pression 29.96 pouce
Visibilité 10.0 Miles terrestres
Nuages Ciel dégagé
Point de rosée 54 ° F
Humidité 56%
Précipitations 0.00 pouce
Profondeur de la couche neigeuse Non disponible.
UV 3 sur 12
Pollen 3.30 sur 12
Qualité de l'air Non disponible.
Flu Activity Non disponible.
METAR K14Y 172120Z AUTO 02006KT 10SM CLR 21/12 A2996 RMK AO2

More Conditions Fewer Conditions

10-Day Weather Forecast

Almanac

Astronomie

Sep. 17, 2014 Lever Coucher
Temps réel 07:00 CDT 19:26 CDT
Crépuscule civil 06:30 CDT 19:56 CDT
Crépuscule nautique 05:54 CDT 20:32 CDT
Crépuscule astronomique 05:18 CDT 21:08 CDT
Lune 00:47 CDT 15:50 CDT
Durée de lumière visible 13h 26m
Longueur du jour
12h 26m
Tomorrow will be 3m 13s shorter.
Lune descendante, 33% of the Moon is Illuminated
Aujourd'hui
Lune descendante
Sep 24
Nouveau
Oct 1
Premier quartier
Oct 8
Pleine lune
Oct 15
Dernier quartier

Extrêmes aujourd'hui

State Highs State Lows

Community

WunderPhotos

Upload Photos

1,754,170 Photos téléchargées !

Nearby

Épaisseur de neige

Station Depth Altitude
Pas de nouvelles chutes de neige

Activité sismique

Ville Distance Mag. Time & Date
No recent earthquake activity has been reported nearby.
Minimum magnitude displayed is 2.5.

Températures des eaux côtières

Lieu Température
Aucun rapport de station

Stations météo à proximité